Time,TemperatureF,DewpointF,PressureIn,WindDirection,WindDirectionDegrees,WindSpeedMPH,WindSpeedGustMPH,Humidity,HourlyPrecipIn,Conditions,Clouds,dailyrainin,SolarRadiationWatts/m^2,SoftwareType,DateUTC
2013-06-29 00:00:00,67.3,63.9,29.58,SSW,194,5.0,7.0,89,0.00,,,0.00,0,WeatherHawk,2013-06-29 04:00:00,
2013-06-29 00:01:00,67.3,63.9,29.58,SSW,199,6.0,7.0,89,0.00,,,0.00,1,WeatherHawk,2013-06-29 04:01:00,
2013-06-29 00:04:00,67.3,63.9,29.58,SSW,194,7.0,7.0,89,0.00,,,0.00,0,WeatherHawk,2013-06-29 04:04:00,
2013-06-29 00:05:00,67.3,63.9,29.58,SSW,194,7.0,-999.0,89,0.00,,,0.00,0,WeatherHawk,2013-06-29 04:05:00,
2013-06-29 00:08:00,67.3,63.9,29.58,SSW,208,4.0,7.0,89,0.00,,,0.00,0,WeatherHawk,2013-06-29 04:08:00,
2013-06-29 00:13:00,67.3,63.9,29.59,SSW,209,6.0,7.0,89,0.00,,,0.00,1,WeatherHawk,2013-06-29 04:13:00,
2013-06-29 00:18:00,67.5,64.1,29.59,SW,223,3.0,8.0,89,0.00,,,0.00,0,WeatherHawk,2013-06-29 04:18:00,
2013-06-29 00:23:00,67.8,64.5,29.59,SW,232,3.0,8.0,89,0.00,,,0.00,0,WeatherHawk,2013-06-29 04:23:00,
2013-06-29 00:28:00,67.8,64.5,29.58,West,263,2.0,6.0,89,0.00,,,0.00,0,WeatherHawk,2013-06-29 04:28:00,
2013-06-29 00:33:00,67.8,64.1,29.58,SE,124,2.0,4.0,88,0.00,,,0.00,1,WeatherHawk,2013-06-29 04:33:00,
2013-06-29 00:38:00,68.0,64.6,29.57,SSW,201,1.0,4.0,89,0.00,,,0.00,0,WeatherHawk,2013-06-29 04:38:00,
2013-06-29 00:43:00,67.8,64.1,29.57,SE,131,5.0,6.0,88,0.00,,,0.00,0,WeatherHawk,2013-06-29 04:43:00,
2013-06-29 00:48:00,67.8,64.1,29.57,SSE,157,3.0,6.0,88,0.00,,,0.00,0,WeatherHawk,2013-06-29 04:48:00,
2013-06-29 00:53:00,67.5,63.8,29.57,SE,134,7.0,9.0,88,0.00,,,0.00,0,WeatherHawk,2013-06-29 04:53:00,
2013-06-29 00:58:00,66.9,63.6,29.56,SE,141,5.0,9.0,89,0.00,,,0.00,0,WeatherHawk,2013-06-29 04:58:00,
2013-06-29 01:03:00,67.3,63.9,29.56,South,177,3.0,7.0,89,0.00,,,0.00,0,WeatherHawk,2013-06-29 05:03:00,
2013-06-29 01:08:00,67.5,64.4,29.56,SE,136,5.0,5.0,90,0.00,,,0.00,0,WeatherHawk,2013-06-29 05:08:00,
2013-06-29 01:13:00,67.3,63.9,29.56,South,171,4.0,6.0,89,0.00,,,0.00,0,WeatherHawk,2013-06-29 05:13:00,
2013-06-29 01:18:00,67.3,63.9,29.56,SSE,151,5.0,6.0,89,0.00,,,0.00,0,WeatherHawk,2013-06-29 05:18:00,
2013-06-29 01:23:00,67.1,63.7,29.55,SSW,200,3.0,5.0,89,0.00,,,0.00,0,WeatherHawk,2013-06-29 05:23:00,
2013-06-29 01:28:00,67.1,64.1,29.55,South,186,4.0,5.0,90,0.00,,,0.00,2,WeatherHawk,2013-06-29 05:28:00,
2013-06-29 01:33:00,67.1,64.1,29.55,South,188,5.0,6.0,90,0.00,,,0.00,0,WeatherHawk,2013-06-29 05:33:00,
2013-06-29 01:38:00,67.1,64.1,29.55,SSW,194,3.0,6.0,90,0.00,,,0.00,0,WeatherHawk,2013-06-29 05:38:00,
2013-06-29 01:43:00,66.7,63.7,29.56,South,190,5.0,5.0,90,0.00,,,0.00,0,WeatherHawk,2013-06-29 05:43:00,
2013-06-29 01:48:00,66.9,63.9,29.56,South,174,6.0,6.0,90,0.00,,,0.00,0,WeatherHawk,2013-06-29 05:48:00,
2013-06-29 01:53:00,67.1,64.1,29.56,SSE,165,6.0,6.0,90,0.00,,,0.00,0,WeatherHawk,2013-06-29 05:53:00,
2013-06-29 01:58:00,67.1,64.1,29.56,SSE,161,5.0,6.0,90,0.00,,,0.00,0,WeatherHawk,2013-06-29 05:58:00,
2013-06-29 02:03:00,67.1,64.1,29.55,SSE,156,5.0,6.0,90,0.00,,,0.00,0,WeatherHawk,2013-06-29 06:03:00,
2013-06-29 02:08:00,67.1,64.1,29.55,SSE,147,6.0,6.0,90,0.00,,,0.00,0,WeatherHawk,2013-06-29 06:08:00,
2013-06-29 02:13:00,66.9,63.9,29.54,SSE,150,6.0,7.0,90,0.00,,,0.00,0,WeatherHawk,2013-06-29 06:13:00,
2013-06-29 02:18:00,66.9,64.2,29.54,SSE,153,7.0,7.0,91,0.00,,,0.00,0,WeatherHawk,2013-06-29 06:18:00,
2013-06-29 02:23:00,67.3,64.6,29.55,SSE,166,7.0,9.0,91,0.00,,,0.00,0,WeatherHawk,2013-06-29 06:23:00,
2013-06-29 02:28:00,66.6,63.5,29.55,SSE,153,6.0,9.0,90,0.00,,,0.00,0,WeatherHawk,2013-06-29 06:28:00,
2013-06-29 02:33:00,65.8,62.8,29.55,SSE,159,5.0,9.0,90,0.00,,,0.00,0,WeatherHawk,2013-06-29 06:33:00,
2013-06-29 02:38:00,65.7,62.6,29.55,SE,146,5.0,9.0,90,0.00,,,0.00,0,WeatherHawk,2013-06-29 06:38:00,
2013-06-29 02:43:00,65.7,62.6,29.55,SE,143,5.0,7.0,90,0.00,,,0.00,0,WeatherHawk,2013-06-29 06:43:00,
2013-06-29 02:48:00,65.7,63.0,29.55,SSE,151,7.0,8.0,91,0.00,,,0.00,0,WeatherHawk,2013-06-29 06:48:00,
2013-06-29 02:53:00,65.7,63.0,29.54,SE,145,5.0,9.0,91,0.00,,,0.00,0,WeatherHawk,2013-06-29 06:53:00,
2013-06-29 02:58:00,65.7,63.0,29.54,SE,143,4.0,9.0,91,0.00,,,0.00,0,WeatherHawk,2013-06-29 06:58:00,
2013-06-29 03:03:00,65.7,63.0,29.54,SSE,151,3.0,7.0,91,0.00,,,0.00,0,WeatherHawk,2013-06-29 07:03:00,
2013-06-29 03:08:00,65.7,63.0,29.55,SSW,196,3.0,5.0,91,0.00,,,0.00,0,WeatherHawk,2013-06-29 07:08:00,
2013-06-29 03:13:00,65.7,63.0,29.55,SSW,198,2.0,4.0,91,0.00,,,0.00,0,WeatherHawk,2013-06-29 07:13:00,
2013-06-29 03:18:00,65.7,63.0,29.54,SSE,154,4.0,4.0,91,0.00,,,0.00,0,WeatherHawk,2013-06-29 07:18:00,
2013-06-29 03:23:00,65.7,63.0,29.54,South,173,3.0,5.0,91,0.00,,,0.00,0,WeatherHawk,2013-06-29 07:23:00,
2013-06-29 03:28:00,66.0,63.3,29.55,South,183,3.0,5.0,91,0.00,,,0.00,0,WeatherHawk,2013-06-29 07:28:00,
2013-06-29 03:33:00,66.0,63.3,29.55,South,176,2.0,5.0,91,0.00,,,0.00,0,WeatherHawk,2013-06-29 07:33:00,
2013-06-29 03:38:00,66.0,63.3,29.54,SSW,193,2.0,4.0,91,0.00,,,0.00,0,WeatherHawk,2013-06-29 07:38:00,
2013-06-29 03:43:00,66.0,63.3,29.54,SSW,198,1.0,3.0,91,0.00,,,0.00,0,WeatherHawk,2013-06-29 07:43:00,
2013-06-29 03:48:00,66.0,63.3,29.55,SSE,159,2.0,2.0,91,0.00,,,0.00,0,WeatherHawk,2013-06-29 07:48:00,
2013-06-29 03:53:00,66.0,63.3,29.54,SSE,150,1.0,2.0,91,0.00,,,0.00,0,WeatherHawk,2013-06-29 07:53:00,
2013-06-29 03:58:00,66.4,63.7,29.54,South,177,1.0,2.0,91,0.00,,,0.00,0,WeatherHawk,2013-06-29 07:58:00,
2013-06-29 04:03:00,66.6,63.8,29.55,SSE,168,3.0,3.0,91,0.00,,,0.00,0,WeatherHawk,2013-06-29 08:03:00,
2013-06-29 04:08:00,66.7,64.0,29.55,SSW,198,2.0,3.0,91,0.00,,,0.00,0,WeatherHawk,2013-06-29 08:08:00,
2013-06-29 04:13:00,66.9,64.2,29.55,SSE,161,2.0,3.0,91,0.00,,,0.00,0,WeatherHawk,2013-06-29 08:13:00,
2013-06-29 04:18:00,66.9,64.2,29.55,South,183,4.0,4.0,91,0.00,,,0.00,0,WeatherHawk,2013-06-29 08:18:00,
2013-06-29 04:23:00,67.3,64.6,29.55,South,175,4.0,5.0,91,0.00,,,0.00,0,WeatherHawk,2013-06-29 08:23:00,
2013-06-29 04:28:00,67.3,64.6,29.55,South,186,3.0,5.0,91,0.00,,,0.00,0,WeatherHawk,2013-06-29 08:28:00,
2013-06-29 04:33:00,67.3,64.6,29.55,SSW,197,4.0,4.0,91,0.00,,,0.00,0,WeatherHawk,2013-06-29 08:33:00,
2013-06-29 04:38:00,67.5,64.7,29.55,SSW,196,3.0,4.0,91,0.00,,,0.00,0,WeatherHawk,2013-06-29 08:38:00,
2013-06-29 04:43:00,67.5,64.7,29.55,SSW,195,4.0,5.0,91,0.00,,,0.00,0,WeatherHawk,2013-06-29 08:43:00,
2013-06-29 04:48:00,67.3,64.6,29.55,SSW,210,1.0,5.0,91,0.00,,,0.00,0,WeatherHawk,2013-06-29 08:48:00,
2013-06-29 04:53:00,67.3,64.6,29.55,SSW,194,6.0,6.0,91,0.00,,,0.00,0,WeatherHawk,2013-06-29 08:53:00,
2013-06-29 04:58:00,67.5,65.1,29.56,SSW,199,7.0,9.0,92,0.00,,,0.00,0,WeatherHawk,2013-06-29 08:58:00,
2013-06-29 05:03:00,67.6,65.2,29.56,SSW,192,9.0,9.0,92,0.00,,,0.00,0,WeatherHawk,2013-06-29 09:03:00,
2013-06-29 05:08:00,67.5,65.1,29.56,SSW,196,8.0,10.0,92,0.00,,,0.00,0,WeatherHawk,2013-06-29 09:08:00,
2013-06-29 05:13:00,67.8,65.4,29.56,SSW,192,9.0,10.0,92,0.00,,,0.00,0,WeatherHawk,2013-06-29 09:13:00,
2013-06-29 05:18:00,67.6,65.2,29.56,South,191,7.0,10.0,92,0.00,,,0.00,0,WeatherHawk,2013-06-29 09:18:00,
2013-06-29 05:23:00,67.5,64.7,29.56,SSW,195,6.0,9.0,91,0.00,,,0.00,2,WeatherHawk,2013-06-29 09:23:00,
2013-06-29 05:28:00,67.1,64.4,29.57,SSW,199,2.0,8.0,91,0.00,,,0.00,1,WeatherHawk,2013-06-29 09:28:00,
2013-06-29 05:33:00,67.1,64.7,29.56,SSW,200,4.0,6.0,92,0.00,,,0.00,3,WeatherHawk,2013-06-29 09:33:00,
2013-06-29 05:38:00,67.1,64.7,29.57,SSW,199,4.0,5.0,92,0.00,,,0.00,5,WeatherHawk,2013-06-29 09:38:00,
2013-06-29 05:43:00,67.1,64.7,29.57,SSW,194,6.0,7.0,92,0.00,,,0.00,6,WeatherHawk,2013-06-29 09:43:00,
2013-06-29 05:48:00,66.6,63.8,29.57,South,178,3.0,7.0,91,0.00,,,0.00,6,WeatherHawk,2013-06-29 09:48:00,
2013-06-29 05:53:00,66.4,63.7,29.57,SSE,155,2.0,6.0,91,0.00,,,0.00,11,WeatherHawk,2013-06-29 09:53:00,
2013-06-29 05:59:00,66.7,64.3,29.57,SSW,209,2.0,4.0,92,0.00,,,0.00,16,WeatherHawk,2013-06-29 09:59:00,
2013-06-29 06:04:00,67.1,64.7,29.56,WSW,252,2.0,3.0,92,0.00,,,0.00,28,WeatherHawk,2013-06-29 10:04:00,
2013-06-29 06:09:00,67.6,65.2,29.57,South,179,2.0,3.0,92,0.00,,,0.00,12,WeatherHawk,2013-06-29 10:09:00,
2013-06-29 06:14:00,67.8,65.4,29.57,South,182,4.0,6.0,92,0.00,,,0.00,7,WeatherHawk,2013-06-29 10:14:00,
2013-06-29 06:19:00,67.6,65.2,29.57,South,190,5.0,6.0,92,0.00,,,0.00,5,WeatherHawk,2013-06-29 10:19:00,
2013-06-29 06:24:00,67.8,65.4,29.58,SW,214,2.0,6.0,92,0.00,,,0.00,2,WeatherHawk,2013-06-29 10:24:00,
2013-06-29 06:29:00,68.0,65.6,29.58,SW,224,1.0,6.0,92,0.00,,,0.00,0,WeatherHawk,2013-06-29 10:29:00,
2013-06-29 06:34:00,68.2,65.8,29.58,SSW,201,2.0,5.0,92,0.00,,,0.00,6,WeatherHawk,2013-06-29 10:34:00,
2013-06-29 06:39:00,68.4,65.9,29.58,SSW,206,1.0,5.0,92,0.00,,,0.00,7,WeatherHawk,2013-06-29 10:39:00,
2013-06-29 06:44:00,68.5,66.1,29.58,SW,228,4.0,4.0,92,0.00,,,0.00,18,WeatherHawk,2013-06-29 10:44:00,
2013-06-29 06:49:00,68.9,66.5,29.57,SSW,194,1.0,5.0,92,0.00,,,0.00,40,WeatherHawk,2013-06-29 10:49:00,
2013-06-29 06:54:00,68.9,66.5,29.58,West,259,4.0,5.0,92,0.00,,,0.00,43,WeatherHawk,2013-06-29 10:54:00,
2013-06-29 06:59:00,69.3,66.8,29.58,NW,305,3.0,6.0,92,0.00,,,0.00,56,WeatherHawk,2013-06-29 10:59:00,
2013-06-29 07:04:00,69.3,66.8,29.58,West,269,4.0,7.0,92,0.00,,,0.00,200,WeatherHawk,2013-06-29 11:04:00,
2013-06-29 07:09:00,69.8,67.4,29.59,SW,226,2.0,7.0,92,0.00,,,0.00,252,WeatherHawk,2013-06-29 11:09:00,
2013-06-29 07:14:00,70.2,67.7,29.59,SW,224,4.0,6.0,92,0.00,,,0.00,303,WeatherHawk,2013-06-29 11:14:00,
2013-06-29 07:19:00,70.5,68.1,29.59,SSW,208,2.0,10.0,92,0.00,,,0.00,273,WeatherHawk,2013-06-29 11:19:00,
2013-06-29 07:24:00,70.9,68.4,29.59,SSW,193,3.0,10.0,92,0.00,,,0.00,431,WeatherHawk,2013-06-29 11:24:00,
2013-06-29 07:29:00,69.6,66.9,29.59,SSW,197,6.0,6.0,91,0.00,,,0.00,94,WeatherHawk,2013-06-29 11:29:00,
2013-06-29 07:34:00,69.3,66.5,29.59,SSW,208,4.0,6.0,91,0.00,,,0.00,190,WeatherHawk,2013-06-29 11:34:00,
2013-06-29 07:39:00,68.9,65.8,29.59,SSW,203,3.0,6.0,90,0.00,,,0.00,199,WeatherHawk,2013-06-29 11:39:00,
2013-06-29 07:44:00,68.4,65.3,29.59,SSE,152,4.0,4.0,90,0.00,,,0.00,144,WeatherHawk,2013-06-29 11:44:00,
2013-06-29 07:49:00,67.6,64.6,29.59,SSE,150,6.0,6.0,90,0.00,,,0.00,170,WeatherHawk,2013-06-29 11:49:00,
2013-06-29 07:54:00,67.6,64.6,29.59,SSE,158,6.0,8.0,90,0.00,,,0.00,114,WeatherHawk,2013-06-29 11:54:00,
2013-06-29 07:59:00,67.3,64.2,29.59,SE,143,6.0,8.0,90,0.00,,,0.00,132,WeatherHawk,2013-06-29 11:59:00,
2013-06-29 08:04:00,66.9,63.9,29.59,SSE,147,8.0,10.0,90,0.00,,,0.00,95,WeatherHawk,2013-06-29 12:04:00,
2013-06-29 08:09:00,67.5,64.7,29.59,SSE,157,6.0,10.0,91,0.00,,,0.00,105,WeatherHawk,2013-06-29 12:09:00,
2013-06-29 08:14:00,67.1,64.4,29.59,South,173,5.0,9.0,91,0.00,,,0.00,101,WeatherHawk,2013-06-29 12:14:00,
2013-06-29 08:19:00,66.7,64.0,29.59,South,183,5.0,8.0,91,0.00,,,0.00,94,WeatherHawk,2013-06-29 12:19:00,
2013-06-29 08:24:00,66.6,63.8,29.59,SSW,196,4.0,7.0,91,0.00,,,0.00,99,WeatherHawk,2013-06-29 12:24:00,
2013-06-29 08:29:00,66.2,63.5,29.60,SSW,194,4.0,7.0,91,0.00,,,0.00,151,WeatherHawk,2013-06-29 12:29:00,
2013-06-29 08:34:00,66.6,63.8,29.60,WSW,240,3.0,6.0,91,0.00,,,0.00,144,WeatherHawk,2013-06-29 12:34:00,
2013-06-29 08:39:00,66.6,63.8,29.60,SW,233,1.0,4.0,91,0.00,,,0.00,224,WeatherHawk,2013-06-29 12:39:00,
2013-06-29 08:44:00,66.9,64.2,29.60,SSW,203,3.0,3.0,91,0.00,,,0.00,214,WeatherHawk,2013-06-29 12:44:00,
2013-06-29 08:49:00,66.6,63.5,29.60,SSW,199,6.0,6.0,90,0.00,,,0.00,200,WeatherHawk,2013-06-29 12:49:00,
2013-06-29 08:54:00,66.7,63.7,29.61,SSW,211,1.0,8.0,90,0.00,,,0.00,169,WeatherHawk,2013-06-29 12:54:00,
2013-06-29 08:59:00,67.3,64.2,29.61,SE,136,1.0,8.0,90,0.00,,,0.00,143,WeatherHawk,2013-06-29 12:59:00,
2013-06-29 09:04:00,67.8,65.1,29.61,SSW,213,2.0,3.0,91,0.00,,,0.00,129,WeatherHawk,2013-06-29 13:04:00,
2013-06-29 09:09:00,68.2,65.4,29.61,SW,220,1.0,3.0,91,0.00,,,0.00,133,WeatherHawk,2013-06-29 13:09:00,
2013-06-29 09:14:00,68.5,65.5,29.61,SSW,209,2.0,3.0,90,0.00,,,0.00,149,WeatherHawk,2013-06-29 13:14:00,
2013-06-29 09:19:00,68.9,65.8,29.61,South,188,2.0,3.0,90,0.00,,,0.00,327,WeatherHawk,2013-06-29 13:19:00,
2013-06-29 09:24:00,69.4,66.4,29.61,West,266,1.0,3.0,90,0.00,,,0.00,330,WeatherHawk,2013-06-29 13:24:00,
2013-06-29 09:29:00,70.2,66.8,29.62,SW,221,2.0,3.0,89,0.00,,,0.00,441,WeatherHawk,2013-06-29 13:29:00,
2013-06-29 09:34:00,71.1,67.3,29.61,SSW,200,1.0,3.0,88,0.00,,,0.00,286,WeatherHawk,2013-06-29 13:34:00,
2013-06-29 09:39:00,71.8,67.4,29.62,WNW,303,2.0,5.0,86,0.00,,,0.00,239,WeatherHawk,2013-06-29 13:39:00,
2013-06-29 09:44:00,72.3,67.5,29.61,SW,236,3.0,5.0,85,0.00,,,0.00,283,WeatherHawk,2013-06-29 13:44:00,
2013-06-29 09:49:00,72.9,67.0,29.61,SSW,213,2.0,6.0,82,0.00,,,0.00,316,WeatherHawk,2013-06-29 13:49:00,
2013-06-29 09:54:00,73.0,67.2,29.62,SW,220,1.0,6.0,82,0.00,,,0.00,249,WeatherHawk,2013-06-29 13:54:00,
2013-06-29 09:59:00,73.0,66.9,29.62,SW,228,3.0,4.0,81,0.00,,,0.00,218,WeatherHawk,2013-06-29 13:59:00,
2013-06-29 10:04:00,72.9,66.7,29.62,SW,218,2.0,4.0,81,0.00,,,0.00,210,WeatherHawk,2013-06-29 14:04:00,
2013-06-29 10:09:00,72.9,67.0,29.62,SSW,197,2.0,6.0,82,0.00,,,0.00,199,WeatherHawk,2013-06-29 14:09:00,
2013-06-29 10:14:00,72.9,66.7,29.62,South,188,2.0,6.0,81,0.00,,,0.00,203,WeatherHawk,2013-06-29 14:14:00,
2013-06-29 10:19:00,72.9,66.3,29.62,WSW,240,2.0,6.0,80,0.00,,,0.00,281,WeatherHawk,2013-06-29 14:19:00,
2013-06-29 10:24:00,73.0,66.5,29.62,South,191,2.0,3.0,80,0.00,,,0.00,386,WeatherHawk,2013-06-29 14:24:00,
2013-06-29 10:29:00,73.6,66.7,29.62,South,185,1.0,5.0,79,0.00,,,0.00,403,WeatherHawk,2013-06-29 14:29:00,
2013-06-29 10:34:00,74.1,66.8,29.62,SW,230,3.0,7.0,78,0.00,,,0.00,422,WeatherHawk,2013-06-29 14:34:00,
2013-06-29 10:39:00,74.3,67.0,29.62,SSW,198,2.0,7.0,78,0.00,,,0.00,306,WeatherHawk,2013-06-29 14:39:00,
2013-06-29 10:44:00,74.3,67.0,29.62,SW,223,1.0,7.0,78,0.00,,,0.00,229,WeatherHawk,2013-06-29 14:44:00,
2013-06-29 10:49:00,73.9,66.6,29.61,SW,225,1.0,7.0,78,0.00,,,0.00,207,WeatherHawk,2013-06-29 14:49:00,
2013-06-29 10:54:00,73.8,66.8,29.61,WSW,250,3.0,10.0,79,0.00,,,0.00,177,WeatherHawk,2013-06-29 14:54:00,
2013-06-29 10:59:00,73.8,66.8,29.61,ENE,58,2.0,10.0,79,0.00,,,0.00,160,WeatherHawk,2013-06-29 14:59:00,
2013-06-29 11:04:00,73.4,66.1,29.61,SW,229,3.0,5.0,78,0.00,,,0.00,126,WeatherHawk,2013-06-29 15:04:00,
2013-06-29 11:09:00,72.0,65.1,29.60,SW,215,2.0,6.0,79,0.00,,,0.00,120,WeatherHawk,2013-06-29 15:09:00,
2013-06-29 11:14:00,70.3,64.2,29.59,South,187,6.0,6.0,81,0.00,,,0.00,129,WeatherHawk,2013-06-29 15:14:00,
2013-06-29 11:19:00,69.3,63.9,29.59,SSW,199,4.0,6.0,83,0.00,,,0.00,154,WeatherHawk,2013-06-29 15:19:00,
2013-06-29 11:24:00,68.9,63.9,29.59,SSW,206,4.0,6.0,84,0.00,,,0.00,180,WeatherHawk,2013-06-29 15:24:00,
2013-06-29 11:29:00,69.1,64.4,29.61,SSW,211,1.0,5.0,85,0.00,,,0.00,207,WeatherHawk,2013-06-29 15:29:00,
2013-06-29 11:34:00,69.8,65.1,29.61,SSW,201,3.0,4.0,85,0.00,,,0.00,210,WeatherHawk,2013-06-29 15:34:00,
2013-06-29 11:39:00,70.9,65.8,29.62,SW,230,2.0,3.0,84,0.00,,,0.00,204,WeatherHawk,2013-06-29 15:39:00,
2013-06-29 11:44:00,71.8,66.0,29.62,SSW,206,1.0,4.0,82,0.00,,,0.00,247,WeatherHawk,2013-06-29 15:44:00,
2013-06-29 11:49:00,72.3,66.2,29.62,WSW,243,4.0,4.0,81,0.00,,,0.00,264,WeatherHawk,2013-06-29 15:49:00,
2013-06-29 11:54:00,72.7,65.8,29.62,SSW,208,2.0,4.0,79,0.00,,,0.00,305,WeatherHawk,2013-06-29 15:54:00,
2013-06-29 11:59:00,72.7,65.4,29.62,SSW,206,2.0,4.0,78,0.00,,,0.00,306,WeatherHawk,2013-06-29 15:59:00,
2013-06-29 12:04:00,72.5,65.2,29.62,SSW,204,2.0,4.0,78,0.00,,,0.00,226,WeatherHawk,2013-06-29 16:04:00,
2013-06-29 12:09:00,72.1,65.3,29.63,WSW,238,2.0,4.0,79,0.00,,,0.00,307,WeatherHawk,2013-06-29 16:09:00,
2013-06-29 12:14:00,72.5,65.6,29.62,SW,234,1.0,4.0,79,0.00,,,0.00,292,WeatherHawk,2013-06-29 16:14:00,
2013-06-29 12:19:00,73.0,65.8,29.62,SW,221,3.0,3.0,78,0.00,,,0.00,346,WeatherHawk,2013-06-29 16:19:00,
2013-06-29 12:24:00,72.5,64.9,29.63,South,174,2.0,5.0,77,0.00,,,0.00,350,WeatherHawk,2013-06-29 16:24:00,
2013-06-29 12:29:00,72.7,65.4,29.63,South,182,2.0,5.0,78,0.00,,,0.00,403,WeatherHawk,2013-06-29 16:29:00,
2013-06-29 12:34:00,73.6,66.3,29.63,WSW,243,2.0,3.0,78,0.00,,,0.00,502,WeatherHawk,2013-06-29 16:34:00,
2013-06-29 12:39:00,72.3,64.7,29.63,SSW,208,5.0,7.0,77,0.00,,,0.00,1005,WeatherHawk,2013-06-29 16:39:00,
2013-06-29 12:44:00,73.2,65.2,29.63,SW,232,3.0,7.0,76,0.00,,,0.00,753,WeatherHawk,2013-06-29 16:44:00,
2013-06-29 12:49:00,73.0,64.6,29.63,SW,215,3.0,7.0,75,0.00,,,0.00,671,WeatherHawk,2013-06-29 16:49:00,
2013-06-29 12:54:00,73.9,65.1,29.63,West,277,2.0,7.0,74,0.00,,,0.00,686,WeatherHawk,2013-06-29 16:54:00,
2013-06-29 12:59:00,74.7,65.4,29.63,SSW,208,3.0,6.0,73,0.00,,,0.00,816,WeatherHawk,2013-06-29 16:59:00,
2013-06-29 13:04:00,73.9,64.3,29.63,SW,214,3.0,6.0,72,0.00,,,0.00,619,WeatherHawk,2013-06-29 17:04:00,
2013-06-29 13:09:00,75.0,64.1,29.63,SSW,194,8.0,8.0,69,0.00,,,0.00,793,WeatherHawk,2013-06-29 17:09:00,
2013-06-29 13:14:00,73.2,64.0,29.63,SSW,211,2.0,8.0,73,0.00,,,0.00,832,WeatherHawk,2013-06-29 17:14:00,
2013-06-29 13:19:00,74.1,64.5,29.63,SW,224,2.0,8.0,72,0.00,,,0.00,902,WeatherHawk,2013-06-29 17:19:00,
2013-06-29 13:24:00,72.9,63.7,29.63,SSW,199,3.0,6.0,73,0.00,,,0.00,394,WeatherHawk,2013-06-29 17:24:00,
2013-06-29 13:29:00,72.7,63.5,29.63,SSW,203,3.0,6.0,73,0.00,,,0.00,944,WeatherHawk,2013-06-29 17:29:00,
2013-06-29 13:34:00,74.5,64.0,29.63,SW,216,3.0,6.0,70,0.00,,,0.00,421,WeatherHawk,2013-06-29 17:34:00,
2013-06-29 13:39:00,73.4,63.0,29.63,SSW,207,6.0,6.0,70,0.00,,,0.00,527,WeatherHawk,2013-06-29 17:39:00,
2013-06-29 13:44:00,72.7,63.1,29.62,SW,218,3.0,6.0,72,0.00,,,0.00,446,WeatherHawk,2013-06-29 17:44:00,
2013-06-29 13:49:00,73.8,64.2,29.62,SSW,210,4.0,6.0,72,0.00,,,0.00,706,WeatherHawk,2013-06-29 17:49:00,
2013-06-29 13:54:00,75.7,64.8,29.62,SW,232,2.0,4.0,69,0.00,,,0.00,766,WeatherHawk,2013-06-29 17:54:00,
2013-06-29 13:59:00,76.8,64.6,29.62,SW,218,3.0,4.0,66,0.00,,,0.00,677,WeatherHawk,2013-06-29 17:59:00,
2013-06-29 14:04:00,76.6,64.0,29.62,West,260,2.0,5.0,65,0.00,,,0.00,574,WeatherHawk,2013-06-29 18:04:00,
2013-06-29 14:09:00,75.6,62.9,29.62,SSW,210,1.0,5.0,65,0.00,,,0.00,841,WeatherHawk,2013-06-29 18:09:00,
2013-06-29 14:14:00,75.0,62.9,29.62,SSW,202,2.0,5.0,66,0.00,,,0.00,901,WeatherHawk,2013-06-29 18:14:00,
2013-06-29 14:19:00,74.3,62.6,29.62,SW,227,2.0,5.0,67,0.00,,,0.00,857,WeatherHawk,2013-06-29 18:19:00,
2013-06-29 14:24:00,74.3,63.0,29.62,WSW,240,2.0,5.0,68,0.00,,,0.00,887,WeatherHawk,2013-06-29 18:24:00,
2013-06-29 14:29:00,74.1,62.9,29.62,West,263,2.0,6.0,68,0.00,,,0.00,794,WeatherHawk,2013-06-29 18:29:00,
2013-06-29 14:34:00,75.9,63.7,29.62,WSW,247,3.0,6.0,66,0.00,,,0.00,661,WeatherHawk,2013-06-29 18:34:00,
2013-06-29 14:39:00,74.7,62.5,29.62,South,190,2.0,9.0,66,0.00,,,0.00,912,WeatherHawk,2013-06-29 18:39:00,
2013-06-29 14:44:00,75.0,62.9,29.62,South,181,3.0,9.0,66,0.00,,,0.00,864,WeatherHawk,2013-06-29 18:44:00,
2013-06-29 14:49:00,74.5,62.4,29.62,SSW,208,5.0,6.0,66,0.00,,,0.00,726,WeatherHawk,2013-06-29 18:49:00,
2013-06-29 14:54:00,73.2,62.4,29.62,SSW,204,7.0,7.0,69,0.00,,,0.00,803,WeatherHawk,2013-06-29 18:54:00,
2013-06-29 14:59:00,72.7,62.3,29.62,SSW,211,3.0,7.0,70,0.00,,,0.00,473,WeatherHawk,2013-06-29 18:59:00,
2013-06-29 15:04:00,72.9,62.9,29.62,SSW,204,4.0,7.0,71,0.00,,,0.00,761,WeatherHawk,2013-06-29 19:04:00,
2013-06-29 15:09:00,73.0,62.7,29.62,SW,220,3.0,4.0,70,0.00,,,0.00,603,WeatherHawk,2013-06-29 19:09:00,
2013-06-29 15:14:00,73.6,62.8,29.62,SSW,199,3.0,4.0,69,0.00,,,0.00,645,WeatherHawk,2013-06-29 19:14:00,
2013-06-29 15:19:00,73.8,62.5,29.62,SSW,213,4.0,4.0,68,0.00,,,0.00,555,WeatherHawk,2013-06-29 19:19:00,
2013-06-29 15:24:00,73.9,62.7,29.62,SW,226,4.0,6.0,68,0.00,,,0.00,655,WeatherHawk,2013-06-29 19:24:00,
2013-06-29 15:29:00,74.5,62.8,29.63,SW,217,3.0,6.0,67,0.00,,,0.00,714,WeatherHawk,2013-06-29 19:29:00,
2013-06-29 15:34:00,74.7,62.5,29.63,SSW,210,3.0,5.0,66,0.00,,,0.00,777,WeatherHawk,2013-06-29 19:34:00,
2013-06-29 15:39:00,75.4,62.3,29.63,SW,216,4.0,5.0,64,0.00,,,0.00,752,WeatherHawk,2013-06-29 19:39:00,
2013-06-29 15:44:00,74.5,61.9,29.63,SW,216,4.0,8.0,65,0.00,,,0.00,738,WeatherHawk,2013-06-29 19:44:00,
2013-06-29 15:49:00,74.7,62.1,29.63,SW,225,3.0,8.0,65,0.00,,,0.00,708,WeatherHawk,2013-06-29 19:49:00,
2013-06-29 15:54:00,74.5,61.9,29.63,SW,220,3.0,5.0,65,0.00,,,0.00,692,WeatherHawk,2013-06-29 19:54:00,
2013-06-29 15:59:00,75.0,62.0,29.63,WSW,247,3.0,4.0,64,0.00,,,0.00,674,WeatherHawk,2013-06-29 19:59:00,
2013-06-29 16:04:00,74.8,61.8,29.63,SW,229,3.0,4.0,64,0.00,,,0.00,662,WeatherHawk,2013-06-29 20:04:00,
2013-06-29 16:09:00,74.7,61.7,29.63,SW,221,8.0,8.0,64,0.00,,,0.00,648,WeatherHawk,2013-06-29 20:09:00,
2013-06-29 16:14:00,74.3,61.8,29.63,SSW,212,4.0,10.0,65,0.00,,,0.00,635,WeatherHawk,2013-06-29 20:14:00,
2013-06-29 16:15:00,74.3,61.8,29.63,SSW,212,4.0,10.0,65,0.00,,,0.00,635,WeatherHawk,2013-06-29 20:15:00,
2013-06-29 16:20:00,74.7,62.1,29.63,SW,230,5.0,10.0,65,0.00,,,0.00,620,WeatherHawk,2013-06-29 20:20:00,
2013-06-29 16:25:00,75.6,62.1,29.63,WSW,240,4.0,7.0,63,0.00,,,0.00,617,WeatherHawk,2013-06-29 20:25:00,
2013-06-29 16:30:00,75.7,62.2,29.63,SW,215,4.0,6.0,63,0.00,,,0.00,610,WeatherHawk,2013-06-29 20:30:00,
2013-06-29 16:35:00,75.6,61.6,29.64,WSW,244,4.0,6.0,62,0.00,,,0.00,591,WeatherHawk,2013-06-29 20:35:00,
2013-06-29 16:40:00,75.4,61.9,29.64,SW,227,6.0,6.0,63,0.00,,,0.00,579,WeatherHawk,2013-06-29 20:40:00,
2013-06-29 16:45:00,74.3,61.3,29.64,SSW,213,7.0,-999.0,64,0.00,,,0.00,565,WeatherHawk,2013-06-29 20:45:00,
2013-06-29 16:50:00,73.4,61.3,29.64,SW,221,6.0,11.0,66,0.00,,,0.00,556,WeatherHawk,2013-06-29 20:50:00,
2013-06-29 16:55:00,73.9,61.4,29.64,SW,236,5.0,11.0,65,0.00,,,0.00,541,WeatherHawk,2013-06-29 20:55:00,
2013-06-29 17:00:00,73.6,61.5,29.64,SW,230,3.0,8.0,66,0.00,,,0.00,525,WeatherHawk,2013-06-29 21:00:00,
2013-06-29 17:05:00,74.1,61.6,29.64,SW,216,4.0,6.0,65,0.00,,,0.00,510,WeatherHawk,2013-06-29 21:05:00,
2013-06-29 17:10:00,74.7,62.1,29.64,SW,217,7.0,-999.0,65,0.00,,,0.00,499,WeatherHawk,2013-06-29 21:10:00,
2013-06-29 17:15:00,74.3,61.8,29.64,SW,230,5.0,7.0,65,0.00,,,0.00,485,WeatherHawk,2013-06-29 21:15:00,
2013-06-29 17:20:00,74.3,61.8,29.65,WSW,241,3.0,7.0,65,0.00,,,0.00,469,WeatherHawk,2013-06-29 21:20:00,
2013-06-29 17:25:00,73.9,61.4,29.65,West,264,3.0,6.0,65,0.00,,,0.00,455,WeatherHawk,2013-06-29 21:25:00,
2013-06-29 17:30:00,73.9,61.4,29.65,SW,235,4.0,-999.0,65,0.00,,,0.00,439,WeatherHawk,2013-06-29 21:30:00,
2013-06-29 17:35:00,73.0,61.0,29.65,SW,215,6.0,-999.0,66,0.00,,,0.00,423,WeatherHawk,2013-06-29 21:35:00,
2013-06-29 17:40:00,72.9,60.8,29.65,SW,219,6.0,7.0,66,0.00,,,0.00,406,WeatherHawk,2013-06-29 21:40:00,
2013-06-29 17:45:00,72.9,60.8,29.65,SW,228,6.0,9.0,66,0.00,,,0.00,391,WeatherHawk,2013-06-29 21:45:00,
2013-06-29 17:50:00,72.5,60.9,29.65,SW,222,4.0,9.0,67,0.00,,,0.00,378,WeatherHawk,2013-06-29 21:50:00,
2013-06-29 17:55:00,72.9,61.2,29.65,SW,218,6.0,6.0,67,0.00,,,0.00,371,WeatherHawk,2013-06-29 21:55:00,
2013-06-29 18:00:00,72.5,60.9,29.65,SW,230,5.0,7.0,67,0.00,,,0.00,359,WeatherHawk,2013-06-29 22:00:00,
2013-06-29 18:05:00,72.9,61.7,29.65,SW,215,3.0,-999.0,68,0.00,,,0.00,346,WeatherHawk,2013-06-29 22:05:00,
2013-06-29 18:10:00,73.4,61.8,29.65,SW,232,3.0,6.0,67,0.00,,,0.00,321,WeatherHawk,2013-06-29 22:10:00,
2013-06-29 18:15:00,73.9,61.8,29.65,WSW,249,4.0,6.0,66,0.00,,,0.00,285,WeatherHawk,2013-06-29 22:15:00,
2013-06-29 18:20:00,74.3,61.8,29.65,SSW,205,4.0,6.0,65,0.00,,,0.00,216,WeatherHawk,2013-06-29 22:20:00,
2013-06-29 18:25:00,74.7,62.1,29.65,SW,227,3.0,-999.0,65,0.00,,,0.00,159,WeatherHawk,2013-06-29 22:25:00,
2013-06-29 18:30:00,74.3,61.8,29.65,SW,233,3.0,5.0,65,0.00,,,0.00,113,WeatherHawk,2013-06-29 22:30:00,
2013-06-29 18:35:00,74.3,62.2,29.65,SW,224,3.0,5.0,66,0.00,,,0.00,90,WeatherHawk,2013-06-29 22:35:00,
2013-06-29 18:40:00,74.7,62.5,29.66,West,265,3.0,6.0,66,0.00,,,0.00,75,WeatherHawk,2013-06-29 22:40:00,
2013-06-29 18:45:00,75.0,62.9,29.66,WSW,252,4.0,6.0,66,0.00,,,0.00,66,WeatherHawk,2013-06-29 22:45:00,
2013-06-29 18:50:00,75.4,62.8,29.66,SW,218,2.0,-999.0,65,0.00,,,0.00,66,WeatherHawk,2013-06-29 22:50:00,
2013-06-29 18:55:00,75.6,62.9,29.66,NW,304,2.0,-999.0,65,0.00,,,0.00,77,WeatherHawk,2013-06-29 22:55:00,
2013-06-29 19:00:00,75.4,62.8,29.66,WSW,258,2.0,5.0,65,0.00,,,0.00,104,WeatherHawk,2013-06-29 23:00:00,
2013-06-29 19:05:00,74.8,62.7,29.66,SW,230,4.0,4.0,66,0.00,,,0.00,128,WeatherHawk,2013-06-29 23:05:00,
2013-06-29 19:10:00,74.1,62.4,29.67,SW,225,3.0,-999.0,67,0.00,,,0.00,142,WeatherHawk,2013-06-29 23:10:00,
2013-06-29 19:15:00,73.9,62.3,29.67,West,259,2.0,-999.0,67,0.00,,,0.00,136,WeatherHawk,2013-06-29 23:15:00,
2013-06-29 19:20:00,74.7,62.1,29.67,SSW,204,1.0,6.0,65,0.00,,,0.00,120,WeatherHawk,2013-06-29 23:20:00,
2013-06-29 19:25:00,75.0,62.0,29.67,West,259,3.0,5.0,64,0.00,,,0.00,109,WeatherHawk,2013-06-29 23:25:00,
2013-06-29 19:30:00,75.2,62.2,29.67,SSE,150,3.0,7.0,64,0.00,,,0.00,96,WeatherHawk,2013-06-29 23:30:00,
2013-06-29 19:35:00,75.2,62.2,29.67,SSW,211,2.0,7.0,64,0.00,,,0.00,73,WeatherHawk,2013-06-29 23:35:00,
2013-06-29 19:40:00,74.3,61.8,29.68,WSW,250,2.0,4.0,65,0.00,,,0.00,69,WeatherHawk,2013-06-29 23:40:00,
2013-06-29 19:45:00,73.2,62.0,29.67,SW,229,2.0,-999.0,68,0.00,,,0.00,56,WeatherHawk,2013-06-29 23:45:00,
2013-06-29 19:50:00,72.3,62.0,29.67,SSW,212,2.0,-999.0,70,0.00,,,0.00,36,WeatherHawk,2013-06-29 23:50:00,
2013-06-29 19:55:00,72.3,62.4,29.68,SW,228,3.0,5.0,71,0.00,,,0.00,21,WeatherHawk,2013-06-29 23:55:00,
2013-06-29 20:00:00,71.4,62.7,29.68,WSW,245,3.0,7.0,74,0.00,,,0.00,31,WeatherHawk,2013-06-30 00:00:00,
2013-06-29 20:05:00,71.4,63.4,29.68,West,277,2.0,7.0,76,0.00,,,0.00,24,WeatherHawk,2013-06-30 00:05:00,
2013-06-29 20:10:00,71.8,63.8,29.68,SSW,203,2.0,4.0,76,0.00,,,0.00,12,WeatherHawk,2013-06-30 00:10:00,
2013-06-29 20:15:00,71.6,63.6,29.68,SW,220,4.0,5.0,76,0.00,,,0.00,5,WeatherHawk,2013-06-30 00:15:00,
2013-06-29 20:20:00,71.1,63.5,29.68,SW,226,4.0,-999.0,77,0.00,,,0.00,7,WeatherHawk,2013-06-30 00:20:00,
2013-06-29 20:25:00,70.5,63.3,29.68,SW,215,3.0,-999.0,78,0.00,,,0.00,4,WeatherHawk,2013-06-30 00:25:00,
2013-06-29 20:30:00,70.5,63.7,29.68,SW,233,2.0,-999.0,79,0.00,,,0.00,3,WeatherHawk,2013-06-30 00:30:00,
2013-06-29 20:35:00,70.7,63.9,29.68,WSW,250,2.0,-999.0,79,0.00,,,0.00,2,WeatherHawk,2013-06-30 00:35:00,
2013-06-29 20:40:00,70.9,64.0,29.69,WSW,252,3.0,4.0,79,0.00,,,0.00,0,WeatherHawk,2013-06-30 00:40:00,
2013-06-29 20:45:00,71.2,64.4,29.69,South,181,2.0,-999.0,79,0.00,,,0.00,0,WeatherHawk,2013-06-30 00:45:00,
2013-06-29 20:50:00,71.2,64.4,29.69,SW,222,2.0,6.0,79,0.00,,,0.00,0,WeatherHawk,2013-06-30 00:50:00,
2013-06-29 20:55:00,71.2,64.7,29.69,SW,217,2.0,5.0,80,0.00,,,0.00,0,WeatherHawk,2013-06-30 00:55:00,
2013-06-29 21:00:00,71.6,65.1,29.70,SW,220,4.0,-999.0,80,0.00,,,0.00,0,WeatherHawk,2013-06-30 01:00:00,
2013-06-29 21:05:00,71.6,64.7,29.70,SSW,198,2.0,7.0,79,0.00,,,0.00,0,WeatherHawk,2013-06-30 01:05:00,
2013-06-29 21:10:00,71.6,64.7,29.70,SSW,206,3.0,7.0,79,0.00,,,0.00,0,WeatherHawk,2013-06-30 01:10:00,
2013-06-29 21:15:00,71.4,64.9,29.71,SSW,208,4.0,7.0,80,0.00,,,0.00,0,WeatherHawk,2013-06-30 01:15:00,
2013-06-29 21:20:00,71.4,64.9,29.71,SW,220,2.0,-999.0,80,0.00,,,0.00,0,WeatherHawk,2013-06-30 01:20:00,
2013-06-29 21:25:00,71.4,64.9,29.71,South,186,3.0,8.0,80,0.00,,,0.00,0,WeatherHawk,2013-06-30 01:25:00,
2013-06-29 21:30:00,71.4,64.9,29.71,South,180,3.0,-999.0,80,0.00,,,0.00,0,WeatherHawk,2013-06-30 01:30:00,
2013-06-29 21:35:00,71.2,64.7,29.71,WSW,245,4.0,7.0,80,0.00,,,0.00,0,WeatherHawk,2013-06-30 01:35:00,
2013-06-29 21:40:00,71.1,64.9,29.72,SSW,207,2.0,6.0,81,0.00,,,0.00,0,WeatherHawk,2013-06-30 01:40:00,
2013-06-29 21:45:00,71.1,64.9,29.72,SSW,199,4.0,7.0,81,0.00,,,0.00,0,WeatherHawk,2013-06-30 01:45:00,
2013-06-29 21:50:00,71.1,64.9,29.72,SW,217,4.0,8.0,81,0.00,,,0.00,0,WeatherHawk,2013-06-30 01:50:00,
2013-06-29 21:55:00,70.9,65.1,29.72,SW,224,5.0,8.0,82,0.00,,,0.00,1,WeatherHawk,2013-06-30 01:55:00,
2013-06-29 22:00:00,71.1,64.9,29.72,SW,226,4.0,8.0,81,0.00,,,0.00,0,WeatherHawk,2013-06-30 02:00:00,
2013-06-29 22:05:00,71.1,64.9,29.72,WSW,240,4.0,-999.0,81,0.00,,,0.00,0,WeatherHawk,2013-06-30 02:05:00,
2013-06-29 22:10:00,71.1,64.9,29.72,WSW,245,5.0,10.0,81,0.00,,,0.00,0,WeatherHawk,2013-06-30 02:10:00,
2013-06-29 22:15:00,71.1,64.9,29.72,SSW,209,2.0,8.0,81,0.00,,,0.00,0,WeatherHawk,2013-06-30 02:15:00,
2013-06-29 22:20:00,70.9,64.7,29.73,SW,229,6.0,8.0,81,0.00,,,0.00,0,WeatherHawk,2013-06-30 02:20:00,
2013-06-29 22:22:00,70.9,64.7,29.73,West,269,5.0,10.0,81,0.00,,,0.00,0,WeatherHawk,2013-06-30 02:22:00,
2013-06-29 22:27:00,70.9,64.7,29.73,SSW,211,4.0,10.0,81,0.00,,,0.00,0,WeatherHawk,2013-06-30 02:27:00,
2013-06-29 22:32:00,70.9,65.1,29.73,SW,230,6.0,8.0,82,0.00,,,0.00,0,WeatherHawk,2013-06-30 02:32:00,
2013-06-29 22:37:00,70.9,65.1,29.73,SW,215,7.0,9.0,82,0.00,,,0.00,0,WeatherHawk,2013-06-30 02:37:00,
2013-06-29 22:42:00,70.7,64.9,29.73,SW,231,6.0,9.0,82,0.00,,,0.00,0,WeatherHawk,2013-06-30 02:42:00,
2013-06-29 22:47:00,70.5,65.1,29.73,WSW,243,5.0,9.0,83,0.00,,,0.00,0,WeatherHawk,2013-06-30 02:47:00,
2013-06-29 22:52:00,70.3,64.9,29.73,WSW,239,3.0,8.0,83,0.00,,,0.00,0,WeatherHawk,2013-06-30 02:52:00,
2013-06-29 22:57:00,70.3,64.9,29.74,WSW,241,3.0,8.0,83,0.00,,,0.00,0,WeatherHawk,2013-06-30 02:57:00,
2013-06-29 23:02:00,70.3,64.9,29.74,SSE,153,2.0,8.0,83,0.00,,,0.00,0,WeatherHawk,2013-06-30 03:02:00,
2013-06-29 23:07:00,70.3,65.3,29.74,SW,221,2.0,6.0,84,0.00,,,0.00,0,WeatherHawk,2013-06-30 03:07:00,
2013-06-29 23:12:00,70.3,65.3,29.74,SSW,196,2.0,7.0,84,0.00,,,0.00,0,WeatherHawk,2013-06-30 03:12:00,
2013-06-29 23:17:00,70.3,65.3,29.74,SW,222,2.0,10.0,84,0.00,,,0.00,0,WeatherHawk,2013-06-30 03:17:00,
2013-06-29 23:22:00,70.2,65.1,29.74,SSW,198,2.0,10.0,84,0.00,,,0.00,0,WeatherHawk,2013-06-30 03:22:00,
2013-06-29 23:27:00,70.2,65.4,29.74,SSW,204,1.0,7.0,85,0.00,,,0.00,0,WeatherHawk,2013-06-30 03:27:00,
2013-06-29 23:32:00,70.2,65.4,29.74,WSW,237,5.0,6.0,85,0.00,,,0.00,0,WeatherHawk,2013-06-30 03:32:00,
2013-06-29 23:37:00,70.2,65.4,29.74,SW,231,5.0,6.0,85,0.00,,,0.00,0,WeatherHawk,2013-06-30 03:37:00,
2013-06-29 23:42:00,70.2,65.4,29.74,WSW,239,6.0,6.0,85,0.00,,,0.00,0,WeatherHawk,2013-06-30 03:42:00,
2013-06-29 23:47:00,70.2,65.4,29.74,SSW,197,2.0,9.0,85,0.00,,,0.00,0,WeatherHawk,2013-06-30 03:47:00,
2013-06-29 23:52:00,70.2,65.4,29.75,SSW,212,2.0,9.0,85,0.00,,,0.00,0,WeatherHawk,2013-06-30 03:52:00,
2013-06-29 23:57:00,70.2,65.4,29.75,SSW,210,2.0,7.0,85,0.00,,,0.00,0,WeatherHawk,2013-06-30 03:57:00,